Time;durP1;ratioP1;P1;durP2;ratioP2;P2;SDS_P1;SDS_P2;PMS_P1;PMS_P2;Temp;Humidity;BMP_temperature;BMP_pressure;BME280_temperature;BME280_humidity;BME280_pressure;Samples;Min_cycle;Max_cycle;Signal;HPM_P1;HPM_P2
2022/09/22 00:01:06;;;;;;;;;;;;;;;8.68;100.00;102554.69;5065458;28;19995;-73
2022/09/22 00:03:33;;;;;;;;;;;;;;;8.64;100.00;102547.66;5070207;28;19921;-72
2022/09/22 00:05:59;;;;;;;;;;;;;;;8.58;100.00;102548.59;5088480;28;19928;-73
2022/09/22 00:08:25;;;;;;;;;;;;;;;8.49;100.00;102549.53;5069625;28;19920;-72
2022/09/22 00:10:57;;;;;;;;;;;;;;;8.42;100.00;102545.19;5066757;28;19947;-72
2022/09/22 00:13:23;;;;;;;;;;;;;;;8.39;100.00;102553.16;5087935;28;19920;-72
2022/09/22 00:15:48;;;;;;;;;;;;;;;8.33;100.00;102558.50;5090902;28;19925;-73
2022/09/22 00:18:14;;;;;;;;;;;;;;;8.26;100.00;102552.38;5067493;28;21477;-72
2022/09/22 00:20:39;;;;;;;;;;;;;;;8.23;100.00;102552.41;5074537;28;20323;-73
2022/09/22 00:23:05;;;;;;;;;;;;;;;8.20;100.00;102547.16;5062929;28;19921;-73
2022/09/22 00:25:30;;;;;;;;;;;;;;;8.18;100.00;102548.94;5069415;28;19924;-73
2022/09/22 00:27:58;;;;;;;;;;;;;;;8.13;100.00;102544.56;5070475;28;19931;-73
2022/09/22 00:30:23;;;;;;;;;;;;;;;8.09;100.00;102542.84;5062959;28;20874;-72
2022/09/22 00:32:49;;;;;;;;;;;;;;;8.05;100.00;102548.16;5066887;28;19920;-73
2022/09/22 00:35:14;;;;;;;;;;;;;;;8.06;100.00;102545.50;5075165;28;19917;-73
2022/09/22 00:37:40;;;;;;;;;;;;;;;8.02;100.00;102549.91;5075091;28;19939;-73
2022/09/22 00:40:05;;;;;;;;;;;;;;;7.98;100.00;102535.03;5074628;28;19950;-73
2022/09/22 00:42:31;;;;;;;;;;;;;;;7.95;100.00;102540.28;5075511;28;19921;-73
2022/09/22 00:44:56;;;;;;;;;;;;;;;7.92;100.00;102536.81;5074036;28;19928;-73
2022/09/22 00:47:25;;;;;;;;;;;;;;;7.86;100.00;102535.97;5073570;28;19931;-73
2022/09/22 00:50:07;;;;;;;;;;;;;;;7.82;100.00;102534.25;5072737;28;19959;-73
2022/09/22 00:52:36;;;;;;;;;;;;;;;7.80;100.00;102532.50;5074040;28;19924;-73
2022/09/22 00:55:03;;;;;;;;;;;;;;;7.77;100.00;102537.78;5075267;28;19931;-73
2022/09/22 00:57:30;;;;;;;;;;;;;;;7.73;100.00;102531.66;5068751;28;19916;-73
2022/09/22 00:59:55;;;;;;;;;;;;;;;7.70;100.00;102532.56;5055529;28;19952;-73
2022/09/22 01:02:21;;;;;;;;;;;;;;;7.68;100.00;102533.47;5070424;28;19920;-73
2022/09/22 01:04:47;;;;;;;;;;;;;;;7.61;100.00;102533.50;5069503;28;19929;-73
2022/09/22 01:07:13;;;;;;;;;;;;;;;7.61;100.00;102529.97;5067899;28;20437;-73
2022/09/22 01:09:38;;;;;;;;;;;;;;;7.64;100.00;102519.44;5062669;28;19972;-73
2022/09/22 01:12:04;;;;;;;;;;;;;;;7.69;100.00;102519.41;5055866;28;19927;-73
2022/09/22 01:14:35;;;;;;;;;;;;;;;7.63;100.00;102514.16;5069033;28;20304;-73
2022/09/22 01:17:07;;;;;;;;;;;;;;;7.58;100.00;102519.47;5055291;28;19983;-73
2022/09/22 01:19:32;;;;;;;;;;;;;;;7.54;100.00;102513.34;5088347;28;19975;-73
2022/09/22 01:22:03;;;;;;;;;;;;;;;7.48;100.00;102506.31;5089131;28;19944;-73
2022/09/22 01:24:48;;;;;;;;;;;;;;;7.43;100.00;102509.88;5073485;28;20015;-73
2022/09/22 01:27:25;;;;;;;;;;;;;;;7.38;100.00;102507.28;5060735;28;20418;-73
2022/09/22 01:30:03;;;;;;;;;;;;;;;7.33;100.00;102507.31;5067939;28;19978;-73
2022/09/22 01:32:30;;;;;;;;;;;;;;;7.30;100.00;102506.44;5072644;28;20268;-73
2022/09/22 01:34:57;;;;;;;;;;;;;;;7.28;100.00;102502.91;5063966;28;19927;-73
2022/09/22 01:37:23;;;;;;;;;;;;;;;7.28;100.00;102502.91;5066044;28;20312;-73
2022/09/22 01:40:08;;;;;;;;;;;;;;;7.26;100.00;102496.78;5069586;28;19921;-73
2022/09/22 01:42:43;;;;;;;;;;;;;;;7.23;100.00;102504.72;5059967;28;20326;-73
2022/09/22 01:45:19;;;;;;;;;;;;;;;7.24;100.00;102506.47;5087152;28;19926;-73
2022/09/22 01:47:48;;;;;;;;;;;;;;;7.28;100.00;102497.66;5057556;28;19925;-73
2022/09/22 01:50:18;;;;;;;;;;;;;;;7.28;100.00;102495.91;5086539;28;19921;-73
2022/09/22 01:52:44;;;;;;;;;;;;;;;7.26;100.00;102494.16;5066790;28;19920;-73
2022/09/22 01:55:18;;;;;;;;;;;;;;;7.25;100.00;102493.25;5060436;28;19925;-73
2022/09/22 01:57:43;;;;;;;;;;;;;;;7.25;100.00;102487.13;5052263;28;19921;-73
2022/09/22 02:00:09;;;;;;;;;;;;;;;7.23;100.00;102486.28;5069886;28;19928;-73
2022/09/22 02:02:46;;;;;;;;;;;;;;;7.22;100.00;102487.13;5072251;28;19962;-71
2022/09/22 02:05:13;;;;;;;;;;;;;;;7.19;100.00;102481.00;5072346;28;19967;-72
2022/09/22 02:07:39;;;;;;;;;;;;;;;7.24;100.00;102485.41;5072202;28;20276;-72
2022/09/22 02:10:06;;;;;;;;;;;;;;;7.26;100.00;102473.97;5055756;28;19921;-72
2022/09/22 02:12:33;;;;;;;;;;;;;;;7.27;100.00;102480.09;5072533;28;19920;-72
2022/09/22 02:14:58;;;;;;;;;;;;;;;7.29;100.00;102471.31;5073256;28;19923;-72
2022/09/22 02:17:24;;;;;;;;;;;;;;;7.33;100.00;102467.78;5074034;28;19946;-71
2022/09/22 02:19:50;;;;;;;;;;;;;;;7.37;100.00;102466.00;5073454;28;20311;-71
2022/09/22 02:22:15;;;;;;;;;;;;;;;7.40;100.00;102455.44;5073240;28;20017;-72
2022/09/22 02:24:41;;;;;;;;;;;;;;;7.41;100.00;102454.53;5074028;28;19979;-72
2022/09/22 02:27:08;;;;;;;;;;;;;;;7.43;100.00;102460.69;5052495;28;19924;-72
2022/09/22 02:29:38;;;;;;;;;;;;;;;7.43;100.00;102459.81;5059918;28;19931;-72
2022/09/22 02:32:05;;;;;;;;;;;;;;;7.42;100.00;102452.78;5075185;28;19940;-72
2022/09/22 02:34:30;;;;;;;;;;;;;;;7.40;100.00;102450.16;5066374;28;19921;-72
2022/09/22 02:37:02;;;;;;;;;;;;;;;7.38;100.00;102445.78;5067937;28;19921;-71
2022/09/22 02:39:33;;;;;;;;;;;;;;;7.33;100.00;102443.19;5071765;28;19924;-72
2022/09/22 02:42:03;;;;;;;;;;;;;;;7.30;100.00;102443.22;5054973;28;20007;-72
2022/09/22 02:44:31;;;;;;;;;;;;;;;7.30;100.00;102441.44;5070418;28;19916;-72
2022/09/22 02:46:59;;;;;;;;;;;;;;;7.30;100.00;102437.94;5071590;28;19936;-72
2022/09/22 02:49:24;;;;;;;;;;;;;;;7.31;100.00;102439.69;5067812;28;19959;-72
2022/09/22 02:51:50;;;;;;;;;;;;;;;7.32;100.00;102441.44;5087685;28;20390;-72
2022/09/22 02:54:16;;;;;;;;;;;;;;;7.29;100.00;102437.06;5083586;28;19916;-72
2022/09/22 02:56:41;;;;;;;;;;;;;;;7.30;100.00;102440.56;5105257;28;19943;-72
2022/09/22 02:59:08;;;;;;;;;;;;;;;7.28;100.00;102435.31;5099291;28;20406;-73
2022/09/22 03:01:34;;;;;;;;;;;;;;;7.29;100.00;102439.69;5071804;28;19920;-72
2022/09/22 03:03:59;;;;;;;;;;;;;;;7.29;100.00;102430.91;5068123;28;19927;-72
2022/09/22 03:06:24;;;;;;;;;;;;;;;7.29;100.00;102433.53;5060690;28;20015;-72
2022/09/22 03:08:50;;;;;;;;;;;;;;;7.27;100.00;102427.41;5052243;28;19931;-72
2022/09/22 03:11:15;;;;;;;;;;;;;;;7.25;100.00;102424.78;5060073;28;20333;-72
2022/09/22 03:13:41;;;;;;;;;;;;;;;7.25;100.00;102418.66;5067323;28;20414;-72
2022/09/22 03:16:06;;;;;;;;;;;;;;;7.24;100.00;102423.03;5089347;28;19936;-72
2022/09/22 03:18:31;;;;;;;;;;;;;;;7.23;100.00;102425.69;5065184;28;19924;-72
2022/09/22 03:20:57;;;;;;;;;;;;;;;7.22;100.00;102419.53;5073194;28;19975;-72
2022/09/22 03:23:22;;;;;;;;;;;;;;;7.24;100.00;102424.81;5072198;28;19924;-72
2022/09/22 03:25:47;;;;;;;;;;;;;;;7.21;100.00;102409.88;5073031;28;19972;-72
2022/09/22 03:28:13;;;;;;;;;;;;;;;7.23;100.00;102415.16;5072487;28;20511;-71
2022/09/22 03:30:39;;;;;;;;;;;;;;;7.20;100.00;102422.16;5065830;28;19920;-72
2022/09/22 03:33:04;;;;;;;;;;;;;;;7.20;100.00;102414.25;5065125;28;20287;-72
2022/09/22 03:35:30;;;;;;;;;;;;;;;7.19;100.00;102406.38;5064510;28;19981;-73
2022/09/22 03:37:55;;;;;;;;;;;;;;;7.17;100.00;102411.66;5053973;28;20002;-72
2022/09/22 03:40:21;;;;;;;;;;;;;;;7.15;100.00;102408.16;5062336;28;20068;-73
2022/09/22 03:42:46;;;;;;;;;;;;;;;7.16;100.00;102409.91;5062246;28;19921;-73
2022/09/22 03:45:13;;;;;;;;;;;;;;;7.17;100.00;102406.41;5061582;28;19924;-72
2022/09/22 03:47:39;;;;;;;;;;;;;;;7.14;100.00;102401.13;5062470;28;20298;-72
2022/09/22 03:50:04;;;;;;;;;;;;;;;7.10;100.00;102409.06;5059178;28;19922;-71
2022/09/22 03:52:30;;;;;;;;;;;;;;;7.07;100.00;102404.69;5060416;28;20337;-72
2022/09/22 03:54:55;;;;;;;;;;;;;;;7.07;100.00;102405.56;5054246;28;19932;-72
2022/09/22 03:57:21;;;;;;;;;;;;;;;7.08;100.00;102406.44;5053828;28;20418;-72
2022/09/22 03:59:46;;;;;;;;;;;;;;;7.08;100.00;102409.06;5092359;28;20433;-72
2022/09/22 04:02:15;;;;;;;;;;;;;;;7.09;100.00;102412.59;5064077;28;19956;-72
2022/09/22 04:04:41;;;;;;;;;;;;;;;7.08;100.00;102401.16;5065430;28;19921;-73
2022/09/22 04:07:06;;;;;;;;;;;;;;;7.08;100.00;102406.44;5072995;28;20291;-72
2022/09/22 04:09:32;;;;;;;;;;;;;;;7.06;100.00;102402.94;5064034;28;19924;-73
2022/09/22 04:11:57;;;;;;;;;;;;;;;7.04;100.00;102410.84;5065842;28;19932;-73
2022/09/22 04:14:23;;;;;;;;;;;;;;;7.03;100.00;102403.84;5067143;28;19990;-73
2022/09/22 04:16:48;;;;;;;;;;;;;;;7.01;100.00;102400.34;5059896;28;20083;-72
2022/09/22 04:19:14;;;;;;;;;;;;;;;7.01;100.00;102396.81;5070877;28;20329;-72
2022/09/22 04:21:39;;;;;;;;;;;;;;;7.01;100.00;102396.81;5071732;28;19947;-72
2022/09/22 04:24:07;;;;;;;;;;;;;;;7.02;100.00;102396.81;5067029;28;20360;-73
2022/09/22 04:26:32;;;;;;;;;;;;;;;7.00;100.00;102397.72;5064810;28;19966;-71
2022/09/22 04:28:58;;;;;;;;;;;;;;;6.96;100.00;102396.84;5067831;28;20346;-73
2022/09/22 04:31:25;;;;;;;;;;;;;;;6.91;100.00;102388.09;5060252;28;19983;-73
2022/09/22 04:33:51;;;;;;;;;;;;;;;6.83;100.00;102392.53;5052536;28;19916;-72
2022/09/22 04:36:16;;;;;;;;;;;;;;;6.79;100.00;102386.41;5065583;28;19925;-72
2022/09/22 04:38:42;;;;;;;;;;;;;;;6.77;100.00;102390.81;5060326;28;19931;-72
2022/09/22 04:41:07;;;;;;;;;;;;;;;6.75;100.00;102387.31;5068468;28;19924;-72
2022/09/22 04:43:32;;;;;;;;;;;;;;;6.71;100.00;102385.56;5073083;28;19921;-72
2022/09/22 04:45:58;;;;;;;;;;;;;;;6.70;100.00;102391.72;5058426;28;19925;-73
2022/09/22 04:48:23;;;;;;;;;;;;;;;6.67;100.00;102389.97;5070146;28;20421;-72
2022/09/22 04:50:48;;;;;;;;;;;;;;;6.66;100.00;102389.09;5062470;28;19925;-73
2022/09/22 04:53:14;;;;;;;;;;;;;;;6.66;100.00;102391.72;5070071;28;19967;-72
2022/09/22 04:55:39;;;;;;;;;;;;;;;6.64;100.00;102393.50;5061619;28;20020;-72
2022/09/22 04:58:06;;;;;;;;;;;;;;;6.62;100.00;102394.38;5055574;28;19920;-72
2022/09/22 05:00:31;;;;;;;;;;;;;;;6.56;100.00;102387.38;5069368;28;20638;-72
2022/09/22 05:02:57;;;;;;;;;;;;;;;6.55;100.00;102390.91;5073522;28;19928;-72
2022/09/22 05:05:26;;;;;;;;;;;;;;;6.51;100.00;102390.03;5073724;28;20011;-71
2022/09/22 05:07:53;;;;;;;;;;;;;;;6.51;100.00;102395.31;5074584;28;20345;-72
2022/09/22 05:10:19;;;;;;;;;;;;;;;6.50;100.00;102382.16;5074229;28;19920;-72
2022/09/22 05:12:45;;;;;;;;;;;;;;;6.48;100.00;102384.78;5074916;28;19970;-72
2022/09/22 05:15:11;;;;;;;;;;;;;;;6.46;100.00;102390.91;5073522;28;19921;-72
2022/09/22 05:17:36;;;;;;;;;;;;;;;6.41;100.00;102396.19;5073374;28;19951;-72
2022/09/22 05:20:05;;;;;;;;;;;;;;;6.36;100.00;102390.97;5062221;28;20391;-72
2022/09/22 05:22:31;;;;;;;;;;;;;;;6.32;100.00;102388.34;5069971;28;20401;-72
2022/09/22 05:24:56;;;;;;;;;;;;;;;6.31;100.00;102392.72;5054448;28;19920;-72
2022/09/22 05:27:22;;;;;;;;;;;;;;;6.30;100.00;102397.97;5076440;28;19920;-72
2022/09/22 05:29:47;;;;;;;;;;;;;;;6.28;100.00;102394.47;5071693;28;19928;-72
2022/09/22 05:32:13;;;;;;;;;;;;;;;6.27;100.00;102398.00;5060402;28;19917;-72
2022/09/22 05:34:42;;;;;;;;;;;;;;;6.25;100.00;102395.38;5062395;28;19921;-73
2022/09/22 05:37:07;;;;;;;;;;;;;;;6.22;100.00;102404.13;5081557;28;19916;-72
2022/09/22 05:39:32;;;;;;;;;;;;;;;6.21;100.00;102399.75;5077822;28;19931;-72
2022/09/22 05:41:58;;;;;;;;;;;;;;;6.19;100.00;102403.25;5083323;28;20435;-72
2022/09/22 05:44:23;;;;;;;;;;;;;;;6.22;100.00;102405.91;5073492;28;19920;-72
2022/09/22 05:46:49;;;;;;;;;;;;;;;6.27;100.00;102405.88;5072894;28;20026;-72
2022/09/22 05:49:14;;;;;;;;;;;;;;;6.32;100.00;102396.25;5067044;28;20432;-72
2022/09/22 05:51:40;;;;;;;;;;;;;;;6.37;100.00;102400.59;5072444;28;19927;-72
2022/09/22 05:54:05;;;;;;;;;;;;;;;6.43;100.00;102398.84;5073778;28;19962;-72
2022/09/22 05:56:31;;;;;;;;;;;;;;;6.45;100.00;102402.31;5069058;28;19982;-72
2022/09/22 05:58:56;;;;;;;;;;;;;;;6.47;100.00;102405.81;5071238;28;19924;-72
2022/09/22 06:01:22;;;;;;;;;;;;;;;6.50;100.00;102397.94;5073200;28;19923;-72
2022/09/22 06:03:48;;;;;;;;;;;;;;;6.51;100.00;102395.31;5074177;28;19921;-72
2022/09/22 06:06:16;;;;;;;;;;;;;;;6.55;100.00;102395.28;5072851;28;20372;-72
2022/09/22 06:08:41;;;;;;;;;;;;;;;6.59;100.00;102397.88;5071280;28;19924;-72
2022/09/22 06:11:07;;;;;;;;;;;;;;;6.63;100.00;102394.38;5072747;28;19931;-72
2022/09/22 06:13:32;;;;;;;;;;;;;;;6.68;100.00;102396.09;5073456;28;19954;-72
2022/09/22 06:16:01;;;;;;;;;;;;;;;6.69;100.00;102392.59;5062978;28;19921;-72
2022/09/22 06:18:27;;;;;;;;;;;;;;;6.71;100.00;102396.09;5057759;28;20414;-72
2022/09/22 06:20:54;;;;;;;;;;;;;;;6.72;100.00;102392.56;5053632;28;20039;-72
2022/09/22 06:23:20;;;;;;;;;;;;;;;6.75;100.00;102395.22;5067767;28;20494;-73
2022/09/22 06:25:45;;;;;;;;;;;;;;;6.77;100.00;102396.06;5052859;28;19927;-72
2022/09/22 06:28:13;;;;;;;;;;;;;;;6.80;100.00;102396.03;5064523;28;20009;-72
2022/09/22 06:30:39;;;;;;;;;;;;;;;6.83;100.00;102396.06;5080948;28;19925;-72
2022/09/22 06:33:04;;;;;;;;;;;;;;;6.88;100.00;102402.16;5096135;28;20375;-72
2022/09/22 06:35:35;;;;;;;;;;;;;;;6.91;100.00;102382.81;5070496;28;19920;-72
2022/09/22 06:38:00;;;;;;;;;;;;;;;6.95;100.00;102386.31;5063388;28;19929;-73
2022/09/22 06:40:26;;;;;;;;;;;;;;;6.97;100.00;102392.47;5052575;28;20425;-73
2022/09/22 06:42:58;;;;;;;;;;;;;;;7.00;100.00;102389.81;5062916;28;20345;-72
2022/09/22 06:45:25;;;;;;;;;;;;;;;7.05;100.00;102393.28;5057844;28;20333;-72
2022/09/22 06:47:51;;;;;;;;;;;;;;;7.09;100.00;102391.53;5067290;28;20018;-72
2022/09/22 06:50:16;;;;;;;;;;;;;;;7.14;100.00;102390.59;5054146;28;19932;-72
2022/09/22 06:52:42;;;;;;;;;;;;;;;7.21;100.00;102396.72;5063866;28;20019;-72
2022/09/22 06:55:09;;;;;;;;;;;;;;;7.27;100.00;102394.03;5070759;28;19921;-73
2022/09/22 06:57:35;;;;;;;;;;;;;;;7.32;100.00;102394.00;5061806;28;19978;-72
2022/09/22 07:00:00;;;;;;;;;;;;;;;7.36;100.00;102395.75;5057670;28;19921;-72
2022/09/22 07:02:27;;;;;;;;;;;;;;;7.42;100.00;102394.81;5053763;28;19983;-72
2022/09/22 07:04:59;;;;;;;;;;;;;;;7.46;100.00;102400.03;5062979;28;19988;-73
2022/09/22 07:07:27;;;;;;;;;;;;;;;7.56;100.00;102392.06;5062446;28;19927;-72
2022/09/22 07:09:53;;;;;;;;;;;;;;;7.62;100.00;102386.75;5059067;28;19925;-73
2022/09/22 07:12:21;;;;;;;;;;;;;;;7.71;100.00;102391.94;5083619;28;20007;-72
2022/09/22 07:14:48;;;;;;;;;;;;;;;7.80;100.00;102385.69;5057724;28;19932;-73
2022/09/22 07:17:15;;;;;;;;;;;;;;;7.88;100.00;102380.38;5061168;28;19924;-72
2022/09/22 07:19:40;;;;;;;;;;;;;;;7.97;100.00;102372.38;5060524;28;19942;-72
2022/09/22 07:22:07;;;;;;;;;;;;;;;8.07;100.00;102374.91;5065778;28;19920;-72
2022/09/22 07:24:32;;;;;;;;;;;;;;;8.17;100.00;102381.81;5059856;28;20268;-72
2022/09/22 07:27:03;;;;;;;;;;;;;;;8.26;100.00;102380.84;5055579;28;19931;-72
2022/09/22 07:29:28;;;;;;;;;;;;;;;8.38;100.00;102385.13;5070406;28;19929;-73
2022/09/22 07:31:55;;;;;;;;;;;;;;;8.49;100.00;102374.47;5058116;28;20379;-72
2022/09/22 07:34:21;;;;;;;;;;;;;;;8.60;100.00;102374.34;5060564;28;20134;-73
2022/09/22 07:36:47;;;;;;;;;;;;;;;8.72;100.00;102378.59;5071948;28;19960;-72
2022/09/22 07:39:13;;;;;;;;;;;;;;;8.82;100.00;102378.44;5061253;28;19931;-73
2022/09/22 07:41:42;;;;;;;;;;;;;;;8.94;100.00;102381.84;5057168;28;20003;-72
2022/09/22 07:47:03;;;;;;;;;;;;;;;9.19;100.00;102381.44;5064909;28;20298;-73
2022/09/22 07:49:29;;;;;;;;;;;;;;;9.29;100.00;102380.44;5073336;28;19925;-73
2022/09/22 07:51:56;;;;;;;;;;;;;;;9.43;100.00;102374.06;5054658;28;19920;-72
2022/09/22 07:54:22;;;;;;;;;;;;;;;9.55;100.00;102370.31;5084414;28;19921;-73
2022/09/22 07:56:48;;;;;;;;;;;;;;;9.67;100.00;102367.47;5089365;28;20151;-72
2022/09/22 07:59:15;;;;;;;;;;;;;;;9.80;100.00;102370.78;5056174;28;19920;-72
2022/09/22 08:01:46;;;;;;;;;;;;;;;9.90;100.00;102363.53;5088452;28;19920;-73
2022/09/22 08:04:14;;;;;;;;;;;;;;;10.02;100.00;102367.75;5053368;28;20322;-73
2022/09/22 08:06:40;;;;;;;;;;;;;;;10.15;100.00;102363.09;5055728;28;19921;-72
2022/09/22 08:09:05;;;;;;;;;;;;;;;10.27;100.00;102368.16;5054594;28;19927;-72
2022/09/22 08:11:31;;;;;;;;;;;;;;;10.41;100.00;102373.16;5054875;28;19916;-73
2022/09/22 08:13:58;;;;;;;;;;;;;;;10.54;100.00;102365.00;5087305;28;19936;-72
2022/09/22 08:16:27;;;;;;;;;;;;;;;10.67;100.00;102366.47;5069150;28;19932;-72
2022/09/22 08:18:56;;;;;;;;;;;;;;;10.82;100.00;102367.94;5054200;28;20003;-72
2022/09/22 08:21:22;;;;;;;;;;;;;;;10.96;100.00;102367.59;5054448;28;20392;-72
2022/09/22 08:23:51;;;;;;;;;;;;;;;11.05;100.00;102363.88;5054232;28;19925;-72
2022/09/22 08:26:16;;;;;;;;;;;;;;;11.18;100.00;102360.94;5055492;28;19927;-72
2022/09/22 08:28:41;;;;;;;;;;;;;;;11.29;100.00;102364.22;5055235;28;20007;-72
2022/09/22 08:31:10;;;;;;;;;;;;;;;11.40;100.00;102363.94;5055262;28;19921;-72
2022/09/22 08:33:35;;;;;;;;;;;;;;;11.51;100.00;102361.88;5053954;28;19920;-72
2022/09/22 08:36:02;;;;;;;;;;;;;;;11.60;100.00;102362.59;5055235;28;20063;-72
2022/09/22 08:38:28;;;;;;;;;;;;;;;11.70;100.00;102364.06;5055394;28;19971;-72
2022/09/22 08:41:00;;;;;;;;;;;;;;;11.79;100.00;102361.19;5054021;28;19935;-72
2022/09/22 08:43:26;;;;;;;;;;;;;;;11.94;100.00;102361.69;5053442;28;19916;-73
2022/09/22 08:45:51;;;;;;;;;;;;;;;12.05;100.00;102358.78;5054921;28;19950;-72
2022/09/22 08:54:05;;;;;;;;;;;;;;;12.32;100.00;102362.41;5053878;28;19917;-72
2022/09/22 08:56:35;;;;;;;;;;;;;;;12.38;100.00;102360.50;5054017;28;19923;-73
2022/09/22 08:59:08;;;;;;;;;;;;;;;12.48;100.00;102362.00;5054952;28;19920;-72
2022/09/22 09:01:44;;;;;;;;;;;;;;;12.58;100.00;102362.59;5055024;28;19999;-73
2022/09/22 09:04:10;;;;;;;;;;;;;;;12.68;100.00;102365.84;5055051;28;19920;-72
2022/09/22 09:06:56;;;;;;;;;;;;;;;12.73;99.69;102362.13;5055082;28;20387;-72
2022/09/22 09:09:25;;;;;;;;;;;;;;;12.83;99.86;102362.72;5058521;28;19921;-72
2022/09/22 09:11:59;;;;;;;;;;;;;;;12.93;99.06;102357.09;5074658;28;19917;-73
2022/09/22 09:14:25;;;;;;;;;;;;;;;13.04;98.51;102360.31;5074341;28;19920;-73
2022/09/22 09:17:09;;;;;;;;;;;;;;;13.13;98.11;102354.69;5073720;28;20079;-72
2022/09/22 09:19:38;;;;;;;;;;;;;;;13.25;97.13;102361.38;5074435;28;19928;-72
2022/09/22 09:22:05;;;;;;;;;;;;;;;13.34;96.09;102368.19;5074795;28;19916;-72
2022/09/22 09:24:31;;;;;;;;;;;;;;;13.38;95.81;102353.00;5073120;28;19939;-73
2022/09/22 09:26:58;;;;;;;;;;;;;;;13.45;94.03;102354.53;5067885;28;19944;-72
2022/09/22 09:29:24;;;;;;;;;;;;;;;13.52;93.99;102356.09;5054034;28;19921;-72
2022/09/22 09:31:51;;;;;;;;;;;;;;;13.55;93.72;102358.69;5053324;28;20015;-72
2022/09/22 09:34:17;;;;;;;;;;;;;;;13.60;93.12;102350.53;5065040;28;19921;-73
2022/09/22 09:36:45;;;;;;;;;;;;;;;13.66;93.32;102347.66;5074580;28;19924;-72
2022/09/22 09:39:11;;;;;;;;;;;;;;;13.74;92.68;102338.53;5072728;28;19956;-72
2022/09/22 09:41:36;;;;;;;;;;;;;;;13.81;92.93;102340.06;5073696;28;19974;-72
2022/09/22 09:44:02;;;;;;;;;;;;;;;13.88;92.48;102348.72;5073967;28;19924;-72
2022/09/22 09:46:33;;;;;;;;;;;;;;;13.96;92.11;102342.16;5072493;28;20073;-73
2022/09/22 09:48:58;;;;;;;;;;;;;;;14.07;90.05;102346.25;5073795;28;19969;-71
2022/09/22 09:51:24;;;;;;;;;;;;;;;14.11;89.33;102353.22;5069443;28;19916;-71
2022/09/22 09:53:51;;;;;;;;;;;;;;;14.18;88.52;102349.41;5052482;28;19994;-71
2022/09/22 09:56:19;;;;;;;;;;;;;;;14.21;88.41;102351.94;5051365;28;19921;-72
2022/09/22 10:01:42;;;;;;;;;;;;;;;14.31;86.57;102343.59;5052765;28;19916;-71
2022/09/22 10:04:26;;;;;;;;;;;;;;;14.36;85.87;102336.31;5052165;28;20304;-72
2022/09/22 10:06:52;;;;;;;;;;;;;;;14.43;85.08;102337.81;5053749;28;20019;-72
2022/09/22 10:09:24;;;;;;;;;;;;;;;14.48;85.24;102342.94;5052549;28;20023;-72
2022/09/22 10:11:59;;;;;;;;;;;;;;;14.52;84.54;102334.81;5053578;28;19962;-72
2022/09/22 10:14:26;;;;;;;;;;;;;;;14.57;83.70;102336.41;5052258;28;20008;-72
2022/09/22 10:16:52;;;;;;;;;;;;;;;14.61;83.70;102341.56;5053516;28;19936;-72
2022/09/22 10:19:18;;;;;;;;;;;;;;;14.66;82.38;102339.59;5056368;28;19916;-72
2022/09/22 10:21:43;;;;;;;;;;;;;;;14.72;82.01;102335.84;5070172;28;19935;-72
2022/09/22 10:24:25;;;;;;;;;;;;;;;14.79;82.30;102336.47;5098027;28;19921;-72
2022/09/22 10:26:53;;;;;;;;;;;;;;;14.83;81.83;102335.44;5069272;28;20069;-72
2022/09/22 10:29:19;;;;;;;;;;;;;;;14.86;81.40;102337.13;5089275;27;19928;-74
2022/09/22 10:32:01;;;;;;;;;;;;;;;14.86;81.57;102332.63;5078713;28;19920;-72
2022/09/22 10:34:32;;;;;;;;;;;;;;;14.89;82.23;102331.66;5072887;28;19956;-72
2022/09/22 10:36:58;;;;;;;;;;;;;;;14.94;80.81;102335.00;5073354;28;19927;-72
2022/09/22 10:39:43;;;;;;;;;;;;;;;15.00;80.38;102328.53;5067928;28;19931;-72
2022/09/22 10:42:22;;;;;;;;;;;;;;;15.01;80.70;102331.16;5078509;28;20443;-72
2022/09/22 10:44:48;;;;;;;;;;;;;;;15.08;75.38;102321.09;5063200;28;20271;-72
2022/09/22 10:47:17;;;;;;;;;;;;;;;15.11;78.73;102317.44;5073829;28;19925;-72
2022/09/22 10:50:01;;;;;;;;;;;;;;;15.12;78.54;102308.50;5071278;28;19926;-72
2022/09/22 10:52:29;;;;;;;;;;;;;;;15.18;77.48;102313.56;5057129;28;19924;-72
2022/09/22 10:54:55;;;;;;;;;;;;;;;15.25;78.36;102307.06;5041309;28;19936;-72
2022/09/22 10:57:22;;;;;;;;;;;;;;;15.24;77.31;102297.31;5044500;28;19930;-72
2022/09/22 10:59:59;;;;;;;;;;;;;;;15.24;77.87;102297.31;5043459;28;19935;-72
2022/09/22 11:02:34;;;;;;;;;;;;;;;15.26;77.64;102295.44;5058120;28;19924;-72
2022/09/22 11:05:03;;;;;;;;;;;;;;;15.34;76.68;102296.00;5044998;28;20371;-72
2022/09/22 11:13:30;;;;;;;;;;;;;;;15.48;76.16;102291.88;5047866;28;19931;-72
2022/09/22 11:16:01;;;;;;;;;;;;;;;15.53;75.98;102292.53;5044971;28;19935;-71
2022/09/22 11:18:40;;;;;;;;;;;;;;;15.59;74.64;102286.91;5046683;28;20031;-71
2022/09/22 11:21:08;;;;;;;;;;;;;;;15.63;73.49;102289.47;5080750;28;19929;-71
2022/09/22 11:23:55;;;;;;;;;;;;;;;15.66;71.99;102284.88;5079595;28;19928;-72
2022/09/22 11:26:35;;;;;;;;;;;;;;;15.64;73.68;102288.53;5045018;28;19929;-73
2022/09/22 11:29:10;;;;;;;;;;;;;;;15.66;73.74;102278.66;5061860;28;20514;-72
2022/09/22 11:31:40;;;;;;;;;;;;;;;15.66;72.54;102273.31;5045228;28;20011;-72
2022/09/22 11:34:15;;;;;;;;;;;;;;;15.66;74.13;102271.50;5045561;28;20071;-72
2022/09/22 11:36:52;;;;;;;;;;;;;;;15.69;73.55;102267.84;5061080;28;19986;-72
2022/09/22 11:39:19;;;;;;;;;;;;;;;15.73;72.37;102266.75;5047759;28;20345;-72
2022/09/22 11:42:04;;;;;;;;;;;;;;;15.76;72.28;102261.28;5050935;28;19929;-72
2022/09/22 11:44:32;;;;;;;;;;;;;;;15.80;72.36;102257.53;5047382;28;19924;-72
2022/09/22 11:47:16;;;;;;;;;;;;;;;15.84;72.82;102258.25;5043962;28;19932;-73
2022/09/22 11:49:44;;;;;;;;;;;;;;;15.86;71.85;102253.75;5049932;28;19924;-72
2022/09/22 11:52:16;;;;;;;;;;;;;;;15.93;73.08;102249.00;5049217;28;19932;-71
2022/09/22 11:55:01;;;;;;;;;;;;;;;15.97;71.60;102247.94;5081669;28;19932;-72
2022/09/22 11:57:28;;;;;;;;;;;;;;;16.04;71.72;102253.84;5028290;28;19929;-71
2022/09/22 11:59:57;;;;;;;;;;;;;;;16.05;71.02;102250.22;5064897;28;20318;-72
2022/09/22 12:02:25;;;;;;;;;;;;;;;16.06;70.78;102236.81;5047537;28;19925;-72
2022/09/22 12:04:56;;;;;;;;;;;;;;;16.06;71.14;102239.47;5062655;28;19999;-72
2022/09/22 12:07:29;;;;;;;;;;;;;;;16.02;71.17;102243.25;5043792;28;19935;-72
2022/09/22 12:09:55;;;;;;;;;;;;;;;16.02;70.90;102237.91;5047611;28;19924;-72
2022/09/22 12:12:21;;;;;;;;;;;;;;;16.05;69.01;102232.41;5046731;28;19929;-73
2022/09/22 12:14:47;;;;;;;;;;;;;;;16.10;71.43;102230.41;5044877;28;19967;-72
2022/09/22 12:17:16;;;;;;;;;;;;;;;16.21;71.39;102221.88;5078423;28;19932;-72
2022/09/22 12:19:41;;;;;;;;;;;;;;;16.33;70.74;102219.56;5044248;28;19924;-74
2022/09/22 12:22:26;;;;;;;;;;;;;;;16.34;70.17;102216.78;5046820;28;19931;-72
2022/09/22 12:24:51;;;;;;;;;;;;;;;16.36;69.31;102216.72;5043869;28;20093;-72
2022/09/22 12:27:21;;;;;;;;;;;;;;;16.38;68.56;102210.38;5043753;28;20646;-72
2022/09/22 12:29:53;;;;;;;;;;;;;;;16.37;68.56;102205.97;5058406;28;19966;-73
2022/09/22 12:32:19;;;;;;;;;;;;;;;16.38;68.17;102205.03;5043585;28;19974;-72
2022/09/22 12:34:45;;;;;;;;;;;;;;;16.41;67.86;102201.34;5043877;28;20295;-72
2022/09/22 12:37:18;;;;;;;;;;;;;;;16.37;67.18;102203.31;5044222;28;19960;-72
2022/09/22 12:39:44;;;;;;;;;;;;;;;16.30;68.05;102191.19;5040051;28;19928;-72
2022/09/22 12:42:19;;;;;;;;;;;;;;;16.28;68.90;102198.38;5042731;28;19928;-72
2022/09/22 12:44:45;;;;;;;;;;;;;;;16.35;69.35;102198.97;5044416;28;19931;-72
2022/09/22 12:47:18;;;;;;;;;;;;;;;16.43;69.66;102192.31;5040384;28;19992;-72
2022/09/22 12:49:50;;;;;;;;;;;;;;;16.49;69.69;102190.25;5045029;28;19936;-72
2022/09/22 12:52:34;;;;;;;;;;;;;;;16.50;66.78;102184.84;5044775;28;19929;-71
2022/09/22 12:55:20;;;;;;;;;;;;;;;16.49;68.51;102187.59;5043195;28;19925;-73
2022/09/22 12:57:46;;;;;;;;;;;;;;;16.48;68.33;102180.50;5041771;28;19924;-73